createdAt,value
2022-09-16T00:00:47.424Z,15.22
2022-09-16T00:03:16.180Z,14.75
2022-09-16T00:05:44.395Z,15.19
2022-09-16T00:08:11.152Z,15.01
2022-09-16T00:10:38.833Z,15.50
2022-09-16T00:13:05.705Z,14.76
2022-09-16T00:15:32.688Z,15.51
2022-09-16T00:17:59.127Z,15.11
2022-09-16T00:20:25.766Z,15.11
2022-09-16T00:22:52.184Z,14.92
2022-09-16T00:25:18.610Z,15.33
2022-09-16T00:27:47.868Z,15.20
2022-09-16T00:30:14.246Z,14.75
2022-09-16T00:32:40.644Z,15.36
2022-09-16T00:35:07.631Z,15.23
2022-09-16T00:37:33.976Z,14.77
2022-09-16T00:40:00.316Z,14.91
2022-09-16T00:42:26.805Z,14.84
2022-09-16T00:44:58.041Z,15.13
2022-09-16T00:47:28.970Z,15.42
2022-09-16T00:49:59.065Z,15.39
2022-09-16T00:52:26.909Z,15.24
2022-09-16T00:54:53.873Z,14.91
2022-09-16T00:57:20.479Z,15.19
2022-09-16T00:59:51.800Z,15.53
2022-09-16T01:02:21.887Z,15.51
2022-09-16T01:04:53.577Z,15.45
2022-09-16T01:07:29.948Z,15.53
2022-09-16T01:09:56.680Z,15.75
2022-09-16T01:12:24.004Z,15.57
2022-09-16T01:14:50.377Z,15.39
2022-09-16T01:17:27.023Z,15.45
2022-09-16T01:20:25.912Z,15.41
2022-09-16T01:23:09.623Z,15.81
2022-09-16T01:25:50.965Z,15.44
2022-09-16T01:28:42.117Z,15.44
2022-09-16T01:31:15.437Z,15.11
2022-09-16T01:33:53.101Z,15.61
2022-09-16T01:36:37.770Z,15.43
2022-09-16T01:39:18.194Z,15.58
2022-09-16T01:42:01.132Z,15.53
2022-09-16T01:44:36.208Z,14.78
2022-09-16T01:47:10.946Z,15.01
2022-09-16T01:49:44.735Z,15.65
2022-09-16T01:52:18.159Z,15.38
2022-09-16T01:54:49.555Z,15.55
2022-09-16T01:57:19.831Z,15.07
2022-09-16T01:59:50.682Z,15.47
2022-09-16T02:02:21.654Z,15.84
2022-09-16T02:04:51.115Z,15.57
2022-09-16T02:07:20.543Z,15.54
2022-09-16T02:09:52.428Z,15.77
2022-09-16T02:12:25.417Z,15.02
2022-09-16T02:14:57.126Z,15.28
2022-09-16T02:17:27.892Z,15.49
2022-09-16T02:19:58.843Z,15.24
2022-09-16T02:22:31.632Z,15.28
2022-09-16T02:25:00.318Z,15.27
2022-09-16T02:27:29.638Z,15.37
2022-09-16T02:30:02.172Z,15.70
2022-09-16T02:32:33.342Z,15.56
2022-09-16T02:35:02.089Z,15.05
2022-09-16T02:37:35.152Z,15.07
2022-09-16T02:40:05.620Z,14.72
2022-09-16T02:42:33.206Z,15.14
2022-09-16T02:45:00.909Z,15.47
2022-09-16T02:47:32.760Z,15.52
2022-09-16T02:50:06.231Z,15.59
2022-09-16T02:52:38.037Z,15.40
2022-09-16T02:55:10.141Z,15.47
2022-09-16T02:57:36.514Z,14.69
2022-09-16T03:00:04.170Z,15.12
2022-09-16T03:02:33.688Z,15.07
2022-09-16T03:05:00.281Z,15.33
2022-09-16T03:07:27.210Z,15.66
2022-09-16T03:09:53.756Z,15.31
2022-09-16T03:12:33.832Z,14.84
2022-09-16T03:15:14.324Z,15.33
2022-09-16T03:17:58.374Z,15.32
2022-09-16T03:20:33.255Z,15.18
2022-09-16T03:23:08.500Z,15.54
2022-09-16T03:25:45.593Z,15.67
2022-09-16T03:28:16.377Z,15.52
2022-09-16T03:30:49.419Z,15.32
2022-09-16T03:33:26.507Z,15.17
2022-09-16T03:35:58.077Z,15.09
2022-09-16T03:38:24.875Z,15.26
2022-09-16T03:40:52.697Z,14.81
2022-09-16T03:43:19.042Z,15.13
2022-09-16T03:45:45.422Z,15.09
2022-09-16T03:48:13.466Z,15.12
2022-09-16T03:50:41.203Z,15.25
2022-09-16T03:53:07.625Z,15.13
2022-09-16T03:55:34.068Z,15.07
2022-09-16T03:58:00.413Z,15.20
2022-09-16T04:00:26.775Z,15.40
2022-09-16T04:02:53.349Z,15.41
2022-09-16T04:05:19.769Z,15.12
2022-09-16T04:07:49.585Z,14.90
2022-09-16T04:10:16.219Z,14.98
2022-09-16T04:12:42.578Z,15.17
2022-09-16T04:15:10.077Z,15.00
2022-09-16T04:17:36.635Z,15.19
2022-09-16T04:20:04.085Z,15.34
2022-09-16T04:22:31.495Z,15.39
2022-09-16T04:24:59.490Z,15.30
2022-09-16T04:27:25.834Z,15.42
2022-09-16T04:29:52.183Z,15.58
2022-09-16T04:32:18.530Z,15.55
2022-09-16T04:34:45.400Z,15.20
2022-09-16T04:37:11.772Z,15.01
2022-09-16T04:39:38.244Z,15.04
2022-09-16T04:42:06.335Z,15.13
2022-09-16T04:44:32.682Z,15.52
2022-09-16T04:46:59.090Z,15.16
2022-09-16T04:49:25.496Z,15.13
2022-09-16T04:51:51.838Z,14.99
2022-09-16T04:54:18.461Z,15.36
2022-09-16T04:56:44.882Z,15.20
2022-09-16T04:59:12.710Z,15.59
2022-09-16T05:01:39.644Z,15.19
2022-09-16T05:04:07.592Z,15.14
2022-09-16T05:06:35.601Z,15.42
2022-09-16T05:09:03.139Z,15.19
2022-09-16T05:11:32.305Z,15.55
2022-09-16T05:13:59.494Z,15.34
2022-09-16T05:16:27.745Z,15.02
2022-09-16T05:18:55.866Z,15.11
2022-09-16T05:21:23.789Z,15.30
2022-09-16T05:23:50.529Z,14.87
2022-09-16T05:26:20.171Z,15.01
2022-09-16T05:28:46.814Z,15.30
2022-09-16T05:31:14.989Z,15.21
2022-09-16T05:33:45.942Z,15.08
2022-09-16T05:36:15.338Z,15.26
2022-09-16T05:38:54.297Z,15.66
2022-09-16T05:41:29.020Z,15.35
2022-09-16T05:43:58.150Z,15.48
2022-09-16T05:46:25.033Z,15.78
2022-09-16T05:48:52.904Z,15.09
2022-09-16T05:51:23.043Z,15.75
2022-09-16T05:53:50.424Z,15.26
2022-09-16T05:56:18.616Z,15.54
2022-09-16T05:58:45.860Z,15.82
2022-09-16T06:01:14.296Z,15.43
2022-09-16T06:03:42.151Z,15.54
2022-09-16T06:06:13.852Z,15.74
2022-09-16T06:08:41.320Z,15.98
2022-09-16T06:11:11.714Z,15.89
2022-09-16T06:13:39.604Z,15.82
2022-09-16T06:16:07.687Z,15.80
2022-09-16T06:18:34.755Z,16.04
2022-09-16T06:21:04.047Z,15.94
2022-09-16T06:23:32.304Z,15.86
2022-09-16T06:25:59.693Z,15.82
2022-09-16T06:28:26.237Z,16.09
2022-09-16T06:31:01.321Z,16.02
2022-09-16T06:33:27.751Z,16.00
2022-09-16T06:35:54.179Z,15.57
2022-09-16T06:38:20.886Z,15.19
2022-09-16T06:40:48.548Z,15.24
2022-09-16T06:43:15.060Z,15.53
2022-09-16T06:45:41.765Z,15.87
2022-09-16T06:48:08.201Z,15.47
2022-09-16T06:50:34.566Z,15.39
2022-09-16T06:53:00.946Z,15.80
2022-09-16T06:55:27.283Z,15.74
2022-09-16T06:57:56.606Z,15.69
2022-09-16T07:00:23.497Z,15.67
2022-09-16T07:02:49.831Z,15.45
2022-09-16T07:05:16.371Z,15.81
2022-09-16T07:07:42.764Z,15.77
2022-09-16T07:10:09.840Z,15.69
2022-09-16T07:12:36.320Z,15.56
2022-09-16T07:15:05.051Z,16.05
2022-09-16T07:17:31.406Z,16.08
2022-09-16T07:19:57.778Z,16.66
2022-09-16T07:22:24.145Z,16.05
2022-09-16T07:24:50.491Z,16.36
2022-09-16T07:27:16.856Z,16.56
2022-09-16T07:29:43.204Z,16.37
2022-09-16T07:32:10.880Z,16.29
2022-09-16T07:34:37.268Z,16.09
2022-09-16T07:37:03.698Z,16.23
2022-09-16T07:39:30.528Z,16.03
2022-09-16T07:41:56.884Z,15.94
2022-09-16T07:44:23.283Z,16.32
2022-09-16T07:46:49.766Z,16.51
2022-09-16T07:49:17.712Z,15.69
2022-09-16T07:51:44.398Z,15.81
2022-09-16T07:54:12.903Z,15.81
2022-09-16T07:56:40.397Z,15.84
2022-09-16T07:59:12.968Z,15.60
2022-09-16T08:01:43.597Z,16.15
2022-09-16T08:04:10.407Z,16.60
2022-09-16T08:06:39.638Z,16.65
2022-09-16T08:09:15.681Z,16.61
2022-09-16T08:11:52.527Z,16.59
2022-09-16T08:14:18.864Z,17.13
2022-09-16T08:16:45.250Z,17.33
2022-09-16T08:19:11.691Z,16.98
2022-09-16T08:21:39.389Z,16.95
2022-09-16T08:24:05.880Z,16.92
2022-09-16T08:26:32.263Z,17.11
2022-09-16T08:29:08.535Z,16.98
2022-09-16T08:31:36.028Z,17.38
2022-09-16T08:34:02.454Z,17.65
2022-09-16T08:36:29.004Z,17.73
2022-09-16T08:38:56.918Z,17.32
2022-09-16T08:41:33.056Z,17.55
2022-09-16T08:44:09.872Z,16.91
2022-09-16T08:46:43.888Z,17.17
2022-09-16T08:49:34.092Z,17.42
2022-09-16T08:52:04.636Z,16.88
2022-09-16T08:54:38.304Z,17.46
2022-09-16T08:57:06.468Z,17.13
2022-09-16T08:59:39.442Z,17.27
2022-09-16T09:02:37.402Z,17.13
2022-09-16T09:05:14.483Z,17.94
2022-09-16T09:07:56.750Z,17.65
2022-09-16T09:10:30.407Z,18.29
2022-09-16T09:13:18.374Z,18.09
2022-09-16T09:15:52.101Z,17.72
2022-09-16T09:18:33.588Z,17.82
2022-09-16T09:21:27.262Z,18.05
2022-09-16T09:24:19.920Z,17.35
2022-09-16T09:26:49.902Z,17.48
2022-09-16T09:29:27.569Z,17.36
2022-09-16T09:32:06.066Z,17.12
2022-09-16T09:34:45.932Z,16.89
2022-09-16T09:37:27.190Z,16.66
2022-09-16T09:40:02.263Z,16.28
2022-09-16T09:42:35.579Z,17.05
2022-09-16T09:45:05.091Z,16.72
2022-09-16T09:47:37.693Z,17.13
2022-09-16T09:50:16.373Z,17.75
2022-09-16T09:52:48.230Z,17.50
2022-09-16T09:55:17.728Z,17.21
2022-09-16T09:58:11.305Z,17.95
2022-09-16T10:00:38.054Z,17.58
2022-09-16T10:03:07.020Z,17.96
2022-09-16T10:05:33.564Z,18.13
2022-09-16T10:08:03.868Z,18.16
2022-09-16T10:10:33.823Z,18.10
2022-09-16T10:13:08.911Z,17.82
2022-09-16T10:15:35.339Z,18.07
2022-09-16T10:18:08.474Z,18.21
2022-09-16T10:20:37.924Z,18.14
2022-09-16T10:23:09.655Z,17.91
2022-09-16T10:25:36.508Z,18.34
2022-09-16T10:28:05.487Z,18.84
2022-09-16T10:30:44.919Z,18.85
2022-09-16T10:33:17.116Z,18.63
2022-09-16T10:35:52.196Z,18.81
2022-09-16T10:38:21.646Z,18.13
2022-09-16T10:40:52.064Z,18.38
2022-09-16T10:43:18.493Z,18.85
2022-09-16T10:45:48.638Z,18.57
2022-09-16T10:48:17.708Z,19.04
2022-09-16T10:50:52.538Z,18.91
2022-09-16T10:53:27.066Z,18.51
2022-09-16T10:55:58.924Z,19.01
2022-09-16T10:58:25.643Z,19.10
2022-09-16T11:01:06.348Z,18.63
2022-09-16T11:04:05.248Z,18.49
2022-09-16T11:06:49.090Z,17.94
2022-09-16T11:09:25.708Z,18.82
2022-09-16T11:12:07.692Z,18.45
2022-09-16T11:14:47.822Z,18.02
2022-09-16T11:17:34.950Z,18.22
2022-09-16T11:20:31.329Z,18.99
2022-09-16T11:23:05.070Z,19.79
2022-09-16T11:25:44.091Z,19.37
2022-09-16T11:28:37.020Z,18.98
2022-09-16T11:31:13.583Z,19.24
2022-09-16T11:33:49.558Z,19.23
2022-09-16T11:36:33.736Z,19.60
2022-09-16T11:39:15.998Z,19.32
2022-09-16T11:41:50.352Z,18.79
2022-09-16T11:44:32.745Z,19.11
2022-09-16T11:47:13.906Z,19.41
2022-09-16T11:49:59.161Z,19.11
2022-09-16T11:52:39.680Z,19.08
2022-09-16T11:55:20.299Z,19.48
2022-09-16T11:57:52.003Z,18.87
2022-09-16T12:00:18.939Z,19.17
2022-09-16T12:02:55.532Z,19.15
2022-09-16T12:05:27.575Z,18.66
2022-09-16T12:08:00.521Z,18.80
2022-09-16T12:10:32.211Z,19.09
2022-09-16T12:13:04.111Z,18.82
2022-09-16T12:15:36.942Z,18.32
2022-09-16T12:18:10.148Z,18.76
2022-09-16T12:20:43.487Z,18.53
2022-09-16T12:23:17.526Z,18.66
2022-09-16T12:25:52.218Z,18.65
2022-09-16T12:28:25.335Z,18.24
2022-09-16T12:31:03.102Z,18.52
2022-09-16T12:33:34.792Z,18.16
2022-09-16T12:36:06.946Z,18.51
2022-09-16T12:38:33.591Z,18.78
2022-09-16T12:41:21.388Z,18.62
2022-09-16T12:44:17.132Z,18.58
2022-09-16T12:47:14.006Z,17.79
2022-09-16T12:49:58.125Z,18.13
2022-09-16T12:52:58.061Z,17.41
2022-09-16T12:55:46.894Z,17.46
2022-09-16T12:58:32.524Z,16.86
2022-09-16T13:01:12.436Z,17.45
2022-09-16T13:03:42.453Z,17.81
2022-09-16T13:06:21.920Z,18.44
2022-09-16T13:08:50.215Z,17.98
2022-09-16T13:12:07.245Z,18.42
2022-09-16T13:14:21.152Z,17.33
2022-09-16T13:16:53.778Z,16.83
2022-09-16T13:19:28.341Z,17.24
2022-09-16T13:21:58.680Z,18.26
2022-09-16T13:24:30.719Z,18.41
2022-09-16T13:26:57.213Z,18.19
2022-09-16T13:29:47.460Z,18.04
2022-09-16T13:32:36.950Z,18.62
2022-09-16T13:35:06.229Z,19.08
2022-09-16T13:37:32.616Z,19.25
2022-09-16T13:40:17.443Z,18.33
2022-09-16T13:42:43.836Z,18.80
2022-09-16T13:45:32.043Z,18.67
2022-09-16T13:48:00.862Z,18.35
2022-09-16T13:50:27.796Z,18.66
2022-09-16T13:52:55.329Z,18.55
2022-09-16T13:55:26.123Z,18.87
2022-09-16T13:58:00.501Z,18.53
2022-09-16T14:00:36.334Z,18.02
2022-09-16T14:03:20.581Z,18.33
2022-09-16T14:06:17.932Z,18.37
2022-09-16T14:08:52.180Z,18.12
2022-09-16T14:11:26.788Z,17.76
2022-09-16T14:14:05.193Z,17.52
2022-09-16T14:16:40.687Z,18.01
2022-09-16T14:19:18.489Z,18.17
2022-09-16T14:21:44.844Z,18.53
2022-09-16T14:24:16.675Z,18.37
2022-09-16T14:26:51.657Z,18.42
2022-09-16T14:29:17.979Z,18.37
2022-09-16T14:31:44.328Z,18.09
2022-09-16T14:34:15.452Z,18.06
2022-09-16T14:36:41.971Z,18.23
2022-09-16T14:39:12.191Z,18.48
2022-09-16T14:41:41.199Z,18.23
2022-09-16T14:44:16.502Z,17.92
2022-09-16T14:46:46.463Z,18.28
2022-09-16T14:49:15.248Z,17.79
2022-09-16T14:51:45.981Z,18.29
2022-09-16T14:54:17.920Z,18.54
2022-09-16T14:56:54.916Z,17.51
2022-09-16T14:59:26.919Z,18.00
2022-09-16T15:01:56.838Z,18.37
2022-09-16T15:04:28.252Z,17.91
2022-09-16T15:07:03.652Z,18.01
2022-09-16T15:09:41.856Z,18.00
2022-09-16T15:12:21.761Z,18.11
2022-09-16T15:14:49.559Z,17.56
2022-09-16T15:17:19.190Z,17.89
2022-09-16T15:19:50.873Z,17.64
2022-09-16T15:22:18.547Z,17.50
2022-09-16T15:24:47.404Z,17.78
2022-09-16T15:27:21.215Z,18.28
2022-09-16T15:29:54.284Z,18.37
2022-09-16T15:32:22.848Z,18.12
2022-09-16T15:35:03.432Z,17.89
2022-09-16T15:37:31.626Z,18.28
2022-09-16T15:40:19.234Z,17.22
2022-09-16T15:42:46.351Z,17.99
2022-09-16T15:45:17.205Z,17.80
2022-09-16T15:47:54.207Z,17.97
2022-09-16T15:50:22.728Z,17.65
2022-09-16T15:52:55.482Z,17.70
2022-09-16T15:55:29.872Z,17.89
2022-09-16T15:57:59.165Z,17.42
2022-09-16T16:00:26.950Z,17.17
2022-09-16T16:02:56.637Z,17.45
2022-09-16T16:05:26.329Z,17.67
2022-09-16T16:07:54.280Z,17.46
2022-09-16T16:10:22.952Z,17.55
2022-09-16T16:12:50.797Z,18.00
2022-09-16T16:15:19.766Z,17.45
2022-09-16T16:17:48.554Z,17.15
2022-09-16T16:20:16.804Z,17.58
2022-09-16T16:22:43.677Z,17.35
2022-09-16T16:25:10.888Z,17.18
2022-09-16T16:27:37.343Z,17.44
2022-09-16T16:30:04.668Z,17.38
2022-09-16T16:32:31.051Z,17.62
2022-09-16T16:34:58.739Z,17.63
2022-09-16T16:37:45.515Z,17.28
2022-09-16T16:40:12.456Z,17.23
2022-09-16T16:42:39.010Z,17.16
2022-09-16T16:45:07.054Z,16.90
2022-09-16T16:47:33.549Z,17.08
2022-09-16T16:50:01.671Z,17.23
2022-09-16T16:52:28.243Z,17.37
2022-09-16T16:54:54.769Z,17.13
2022-09-16T16:57:21.123Z,17.23
2022-09-16T16:59:47.461Z,16.95
2022-09-16T17:02:13.845Z,17.17
2022-09-16T17:04:41.229Z,17.14
2022-09-16T17:07:25.227Z,16.84
2022-09-16T17:09:53.197Z,16.98
2022-09-16T17:12:19.603Z,17.02
2022-09-16T17:14:46.153Z,16.77
2022-09-16T17:17:12.528Z,16.81
2022-09-16T17:19:38.904Z,16.99
2022-09-16T17:22:05.304Z,16.17
2022-09-16T17:24:33.007Z,16.86
2022-09-16T17:26:59.364Z,16.85
2022-09-16T17:29:25.744Z,16.74
2022-09-16T17:31:52.155Z,16.39
2022-09-16T17:34:18.485Z,16.31
2022-09-16T17:36:46.185Z,15.93
2022-09-16T17:39:14.300Z,16.42
2022-09-16T17:41:42.167Z,15.32
2022-09-16T17:44:10.599Z,16.17
2022-09-16T17:46:38.642Z,16.65
2022-09-16T17:49:06.957Z,16.17
2022-09-16T17:51:34.696Z,16.30
2022-09-16T17:54:01.527Z,16.49
2022-09-16T17:56:27.916Z,16.58
2022-09-16T17:58:55.687Z,16.39
2022-09-16T18:01:24.048Z,16.54
2022-09-16T18:03:51.796Z,16.50
2022-09-16T18:06:20.241Z,16.14
2022-09-16T18:08:47.504Z,15.83
2022-09-16T18:11:15.307Z,15.88
2022-09-16T18:13:42.428Z,15.60
2022-09-16T18:16:12.767Z,15.82
2022-09-16T18:18:40.819Z,16.26
2022-09-16T18:21:09.991Z,15.52
2022-09-16T18:23:36.358Z,15.99
2022-09-16T18:26:04.717Z,15.84
2022-09-16T18:28:35.822Z,16.07
2022-09-16T18:31:17.122Z,15.46
2022-09-16T18:33:43.731Z,15.38
2022-09-16T18:36:12.032Z,15.12
2022-09-16T18:38:39.360Z,15.11
2022-09-16T18:41:08.504Z,15.53
2022-09-16T18:43:35.233Z,15.74
2022-09-16T18:46:10.327Z,15.17
2022-09-16T18:48:38.649Z,15.29
2022-09-16T18:51:05.338Z,15.19
2022-09-16T18:53:32.210Z,15.47
2022-09-16T18:55:59.066Z,15.45
2022-09-16T18:58:25.409Z,15.41
2022-09-16T19:00:51.984Z,15.53
2022-09-16T19:03:18.380Z,15.23
2022-09-16T19:05:55.664Z,15.57
2022-09-16T19:08:22.027Z,15.20
2022-09-16T19:10:48.361Z,14.85
2022-09-16T19:13:14.871Z,15.19
2022-09-16T19:15:41.276Z,15.33
2022-09-16T19:18:07.619Z,15.39
2022-09-16T19:20:34.004Z,15.36
2022-09-16T19:23:01.679Z,15.23
2022-09-16T19:25:28.019Z,15.11
2022-09-16T19:27:54.589Z,14.45
2022-09-16T19:30:21.006Z,14.34
2022-09-16T19:32:47.418Z,14.30
2022-09-16T19:35:13.851Z,14.69
2022-09-16T19:37:40.183Z,14.61
2022-09-16T19:40:08.346Z,14.92
2022-09-16T19:42:34.815Z,14.94
2022-09-16T19:45:01.193Z,14.91
2022-09-16T19:47:27.537Z,15.00
2022-09-16T19:49:53.970Z,14.96
2022-09-16T19:52:20.350Z,15.06
2022-09-16T19:54:46.768Z,14.96
2022-09-16T19:57:14.483Z,14.82
2022-09-16T19:59:40.819Z,15.02
2022-09-16T20:02:08.983Z,15.14
2022-09-16T20:04:35.508Z,15.10
2022-09-16T20:07:01.883Z,14.74
2022-09-16T20:09:28.207Z,14.98
2022-09-16T20:11:54.580Z,15.13
2022-09-16T20:14:22.294Z,15.22
2022-09-16T20:16:49.959Z,15.27
2022-09-16T20:19:18.849Z,15.25
2022-09-16T20:21:45.537Z,15.39
2022-09-16T20:24:14.912Z,14.81
2022-09-16T20:26:41.419Z,15.22
2022-09-16T20:29:07.761Z,15.05
2022-09-16T20:31:36.527Z,14.72
2022-09-16T20:34:04.158Z,15.13
2022-09-16T20:36:31.603Z,15.06
2022-09-16T20:38:59.186Z,14.94
2022-09-16T20:41:28.815Z,14.85
2022-09-16T20:43:55.501Z,15.20
2022-09-16T20:46:23.652Z,15.14
2022-09-16T20:48:53.453Z,14.99
2022-09-16T20:51:22.028Z,14.98
2022-09-16T20:53:51.659Z,15.03
2022-09-16T20:56:18.486Z,15.00
2022-09-16T20:58:45.315Z,14.85
2022-09-16T21:01:13.465Z,15.05
2022-09-16T21:03:39.860Z,15.09
2022-09-16T21:06:09.778Z,15.29
2022-09-16T21:08:36.475Z,14.82
2022-09-16T21:11:07.417Z,15.32
2022-09-16T21:13:34.068Z,14.76
2022-09-16T21:16:00.731Z,15.04
2022-09-16T21:18:27.832Z,15.10
2022-09-16T21:21:01.871Z,15.15
2022-09-16T21:23:29.579Z,15.30
2022-09-16T21:25:56.013Z,15.12
2022-09-16T21:28:22.546Z,15.32
2022-09-16T21:30:48.979Z,15.12
2022-09-16T21:33:15.358Z,14.66
2022-09-16T21:35:50.472Z,14.94
2022-09-16T21:38:16.987Z,15.13
2022-09-16T21:40:44.722Z,14.64
2022-09-16T21:43:11.151Z,14.92
2022-09-16T21:45:42.583Z,14.69
2022-09-16T21:48:08.933Z,14.93
2022-09-16T21:50:35.362Z,15.04
2022-09-16T21:53:01.755Z,15.16
2022-09-16T21:55:29.863Z,14.92
2022-09-16T21:57:57.537Z,14.56
2022-09-16T22:00:24.430Z,15.02
2022-09-16T22:02:50.815Z,14.84
2022-09-16T22:05:17.276Z,14.86
2022-09-16T22:07:43.612Z,14.96
2022-09-16T22:10:10.014Z,15.13
2022-09-16T22:12:36.422Z,15.07
2022-09-16T22:15:05.355Z,15.29
2022-09-16T22:17:31.813Z,15.01
2022-09-16T22:19:58.210Z,15.00
2022-09-16T22:22:24.538Z,15.11
2022-09-16T22:24:51.107Z,14.90
2022-09-16T22:27:17.475Z,15.32
2022-09-16T22:29:43.828Z,15.17
2022-09-16T22:32:11.518Z,14.86
2022-09-16T22:34:38.043Z,14.82
2022-09-16T22:37:04.411Z,14.87
2022-09-16T22:39:30.769Z,15.06
2022-09-16T22:41:57.122Z,15.24
2022-09-16T22:44:23.503Z,15.23
2022-09-16T22:46:49.869Z,15.36
2022-09-16T22:49:17.738Z,15.12
2022-09-16T22:51:44.332Z,15.40
2022-09-16T22:54:12.612Z,15.37
2022-09-16T22:56:39.307Z,15.15
2022-09-16T22:59:06.667Z,15.48
2022-09-16T23:01:35.667Z,15.24
2022-09-16T23:04:03.993Z,15.36
2022-09-16T23:06:33.539Z,15.15
2022-09-16T23:09:00.870Z,15.01
2022-09-16T23:11:28.989Z,15.16
2022-09-16T23:13:56.415Z,15.08
2022-09-16T23:16:40.575Z,14.48
2022-09-16T23:19:09.901Z,14.99
2022-09-16T23:21:38.603Z,14.59
2022-09-16T23:24:07.196Z,14.90
2022-09-16T23:26:36.221Z,14.54
2022-09-16T23:29:05.355Z,15.12
2022-09-16T23:31:34.609Z,15.18
2022-09-16T23:34:01.456Z,14.77
2022-09-16T23:36:28.336Z,14.20
2022-09-16T23:38:56.550Z,14.28
2022-09-16T23:41:24.507Z,14.79
2022-09-16T23:43:50.867Z,15.14
2022-09-16T23:46:22.124Z,14.60
2022-09-16T23:48:49.217Z,15.06
2022-09-16T23:51:15.589Z,14.99
2022-09-16T23:53:42.090Z,14.91
2022-09-16T23:56:11.930Z,15.09
2022-09-16T23:58:38.975Z,15.06
